Time;durP1;ratioP1;P1;durP2;ratioP2;P2;SDS_P1;SDS_P2;PMS_P1;PMS_P2;Temp;Humidity;BMP_temperature;BMP_pressure;BME280_temperature;BME280_humidity;BME280_pressure;Samples;Min_cycle;Max_cycle;Signal;HPM_P1;HPM_P2
2021/06/17 00:02:10;;;;;;;7.78;6.33;;;;;;;19.24;58.90;100744.56;128660;1092;22341;-78
2021/06/17 00:04:40;;;;;;;9.80;6.60;;;;;;;19.23;59.02;100747.48;128648;1092;24669;-77
2021/06/17 00:07:11;;;;;;;7.08;6.00;;;;;;;19.24;58.95;100752.60;128645;1092;22366;-77
2021/06/17 00:09:41;;;;;;;11.03;7.58;;;;;;;19.22;59.11;100760.02;128346;1092;24489;-78
2021/06/17 00:12:11;;;;;;;13.10;7.13;;;;;;;19.19;58.71;100752.44;128571;1092;23486;-78
2021/06/17 00:14:41;;;;;;;7.75;6.55;;;;;;;19.16;58.82;100750.19;128652;1092;22340;-76
2021/06/17 00:17:11;;;;;;;9.05;6.98;;;;;;;19.13;58.75;100749.80;128639;1092;22367;-77
2021/06/17 00:19:40;;;;;;;11.25;7.05;;;;;;;19.11;59.02;100747.32;128723;1092;22343;-78
2021/06/17 00:22:11;;;;;;;11.35;7.33;;;;;;;19.10;58.88;100753.72;128615;1092;22340;-78
2021/06/17 00:24:40;;;;;;;8.25;6.58;;;;;;;19.10;59.27;100753.72;128679;1092;22436;-78
2021/06/17 00:27:10;;;;;;;8.05;6.83;;;;;;;19.09;59.40;100746.70;128649;1092;22401;-77
2021/06/17 00:29:40;;;;;;;8.23;6.15;;;;;;;19.11;59.39;100746.50;128627;1092;22394;-77
2021/06/17 00:32:10;;;;;;;9.75;6.48;;;;;;;19.10;59.14;100742.20;128642;1092;22356;-78
2021/06/17 00:34:42;;;;;;;8.15;6.60;;;;;;;19.07;59.33;100743.44;128627;1092;24217;-77
2021/06/17 00:37:12;;;;;;;7.80;7.00;;;;;;;19.05;59.72;100746.31;128622;1092;22402;-76
2021/06/17 00:39:43;;;;;;;8.73;7.28;;;;;;;19.03;59.49;100747.58;128638;1092;22347;-77
2021/06/17 00:42:13;;;;;;;11.50;7.43;;;;;;;19.01;59.56;100741.61;128639;1092;22353;-77
2021/06/17 00:44:43;;;;;;;12.50;8.43;;;;;;;19.00;59.32;100738.11;128616;1092;22792;-78
2021/06/17 00:47:17;;;;;;;8.33;7.27;;;;;;;18.98;59.33;100734.00;128656;1092;22345;-77
2021/06/17 00:49:47;;;;;;;10.60;7.90;;;;;;;18.95;59.53;100729.07;128609;1092;22378;-77
2021/06/17 00:52:17;;;;;;;8.08;7.28;;;;;;;18.95;59.56;100734.42;128674;1092;22440;-79
2021/06/17 00:54:47;;;;;;;10.10;8.03;;;;;;;18.95;59.94;100731.75;128715;1092;22342;-77
2021/06/17 00:57:17;;;;;;;8.35;6.68;;;;;;;18.95;59.43;100729.07;128641;1092;22183;-78
2021/06/17 00:59:47;;;;;;;9.50;7.88;;;;;;;18.97;59.86;100727.83;128638;1092;22631;-78
2021/06/17 01:02:17;;;;;;;12.77;7.73;;;;;;;18.97;59.33;100730.51;128694;1092;23028;-77
2021/06/17 01:04:47;;;;;;;8.65;7.28;;;;;;;18.94;59.58;100736.28;128669;1092;24175;-77
2021/06/17 01:08:04;;;;;;;7.90;7.20;;;;;;;18.92;59.73;100740.20;128617;1092;22364;-77
2021/06/17 01:11:25;;;;;;;10.10;6.90;;;;;;;18.85;59.91;100742.91;128729;1092;22356;-78
2021/06/17 01:14:20;;;;;;;7.40;6.43;;;;;;;18.81;60.17;100742.52;128225;1095;22349;-77
2021/06/17 01:16:56;;;;;;;11.28;7.48;;;;;;;18.81;59.90;100734.48;128246;1095;22343;-77
2021/06/17 01:19:53;;;;;;;8.88;7.73;;;;;;;18.85;59.98;100737.55;128165;1095;24281;-77
2021/06/17 01:22:59;;;;;;;9.93;7.40;;;;;;;18.84;60.16;100735.92;128315;1095;22863;-77
2021/06/17 01:26:21;;;;;;;8.13;7.25;;;;;;;18.78;59.98;100726.06;128268;1095;22332;-77
2021/06/17 01:28:55;;;;;;;9.20;7.45;;;;;;;18.71;60.00;100728.73;128235;1098;22458;-78
2021/06/17 01:31:28;;;;;;;10.78;7.78;;;;;;;18.71;59.94;100727.92;127941;1098;22394;-78
2021/06/17 01:34:00;;;;;;;10.63;7.23;;;;;;;18.69;60.12;100730.79;128017;1098;22452;-77
2021/06/17 01:36:39;;;;;;;9.48;8.03;;;;;;;18.68;60.11;100726.48;128085;1098;24505;-77
2021/06/17 01:39:12;;;;;;;8.88;7.75;;;;;;;18.65;60.42;100732.25;128026;1098;22468;-78
2021/06/17 01:41:47;;;;;;;12.00;7.83;;;;;;;18.66;60.73;100731.23;128234;1098;22424;-78
2021/06/17 01:44:22;;;;;;;8.88;7.28;;;;;;;18.68;60.62;100737.19;128008;1098;24488;-78
2021/06/17 01:46:52;;;;;;;8.50;7.28;;;;;;;18.71;60.61;100733.27;128068;1098;23334;-76
2021/06/17 01:49:24;;;;;;;10.00;7.75;;;;;;;18.69;60.56;100730.79;128154;1098;22372;-76
2021/06/17 01:51:57;;;;;;;8.77;6.90;;;;;;;18.65;60.72;100728.76;128230;1095;22441;-77
2021/06/17 01:54:30;;;;;;;9.13;8.08;;;;;;;18.62;60.40;100730.00;128177;1095;25117;-77
2021/06/17 01:57:01;;;;;;;10.08;7.33;;;;;;;18.55;61.10;100724.67;128316;1095;22363;-77
2021/06/17 01:59:32;;;;;;;10.23;7.95;;;;;;;18.52;60.75;100733.11;128192;1095;23309;-77
2021/06/17 02:02:03;;;;;;;9.40;7.88;;;;;;;18.48;60.79;100726.55;128194;1095;22367;-78
2021/06/17 02:04:34;;;;;;;8.73;7.83;;;;;;;18.47;61.09;100732.94;128271;1095;22425;-77
2021/06/17 02:07:04;;;;;;;9.40;7.70;;;;;;;18.46;61.44;100731.30;128451;1092;23339;-77
2021/06/17 02:09:34;;;;;;;10.70;7.55;;;;;;;18.45;61.28;100736.84;128608;1092;22340;-77
2021/06/17 02:12:04;;;;;;;10.30;7.28;;;;;;;18.44;61.58;100748.59;128600;1092;22341;-76
2021/06/17 02:14:35;;;;;;;11.63;7.70;;;;;;;18.45;61.61;100739.52;128598;1095;23116;-77
2021/06/17 02:17:06;;;;;;;12.20;8.85;;;;;;;18.42;61.52;100743.43;128679;1092;23118;-77
2021/06/17 02:19:37;;;;;;;11.80;9.00;;;;;;;18.43;61.47;100746.95;128637;1095;22369;-77
2021/06/17 02:22:08;;;;;;;9.50;8.57;;;;;;;18.41;61.52;100743.66;128622;1092;22345;-77
2021/06/17 02:24:40;;;;;;;11.00;8.33;;;;;;;18.37;61.35;100745.93;128605;1092;22340;-77
2021/06/17 02:27:22;;;;;;;11.60;9.08;;;;;;;18.32;61.87;100741.19;128586;1092;22436;-76
2021/06/17 02:29:51;;;;;;;11.88;8.28;;;;;;;18.29;62.02;100746.14;128597;1092;25000;-77
2021/06/17 02:32:24;;;;;;;11.68;9.45;;;;;;;18.29;61.74;100743.46;128588;1095;22356;-76
2021/06/17 02:34:57;;;;;;;14.28;8.90;;;;;;;18.28;61.98;100753.34;128666;1092;24525;-77
2021/06/17 02:37:30;;;;;;;13.68;8.20;;;;;;;18.27;62.20;100758.91;128627;1092;22806;-76
2021/06/17 02:40:02;;;;;;;11.65;9.98;;;;;;;18.25;62.25;100758.29;128610;1092;24495;-77
2021/06/17 02:42:34;;;;;;;12.85;10.73;;;;;;;18.24;62.32;100754.80;128730;1092;22341;-77
2021/06/17 02:45:06;;;;;;;13.85;10.70;;;;;;;18.23;62.70;100744.33;128638;1092;22356;-77
2021/06/17 02:47:39;;;;;;;10.75;9.35;;;;;;;18.22;62.39;100746.15;128682;1092;22371;-76
2021/06/17 02:50:10;;;;;;;12.30;10.15;;;;;;;18.18;62.27;100747.60;128549;1094;22366;-77
2021/06/17 02:52:40;;;;;;;13.20;10.90;;;;;;;18.16;62.61;100752.35;128299;1092;25116;-77
2021/06/17 02:55:11;;;;;;;12.83;11.60;;;;;;;18.17;62.76;100745.15;128695;1092;22340;-77
2021/06/17 02:58:43;;;;;;;11.63;10.53;;;;;;;18.16;63.18;100747.01;128569;1092;22346;-77
2021/06/17 03:01:42;;;;;;;11.60;10.23;;;;;;;18.14;63.19;100750.91;128208;1095;22502;-77
2021/06/17 03:04:21;;;;;;;12.28;11.05;;;;;;;18.11;62.97;100750.28;128237;1095;22435;-76
2021/06/17 03:06:52;;;;;;;12.33;10.67;;;;;;;18.10;63.11;100751.32;128258;1095;22466;-79
2021/06/17 03:09:46;;;;;;;14.28;11.45;;;;;;;18.09;62.84;100746.16;128324;1098;22362;-77
2021/06/17 03:12:21;;;;;;;12.35;11.18;;;;;;;18.07;63.06;100741.04;128241;1095;22353;-76
2021/06/17 03:14:55;;;;;;;15.45;11.40;;;;;;;18.07;63.03;100742.89;128277;1095;22370;-78
2021/06/17 03:17:27;;;;;;;12.75;11.50;;;;;;;18.04;62.99;100744.13;128317;1095;22369;-77
2021/06/17 03:19:59;;;;;;;15.23;11.25;;;;;;;18.04;63.09;100748.66;128236;1095;22372;-77
2021/06/17 03:22:31;;;;;;;13.90;12.15;;;;;;;18.05;63.86;100744.94;128324;1095;22854;-78
2021/06/17 03:25:06;;;;;;;;;;;;;;;18.00;62.96;100740.23;128289;1095;22517;-77
2021/06/17 03:27:38;;;;;;;13.93;11.80;;;;;;;17.94;64.02;100740.23;128290;1098;23097;-76
2021/06/17 03:30:10;;;;;;;12.50;11.00;;;;;;;17.96;63.64;100740.83;128379;1095;23875;-77
2021/06/17 03:32:41;;;;;;;15.15;12.40;;;;;;;17.99;63.71;100741.23;128631;1095;23138;-77
2021/06/17 03:35:11;;;;;;;14.98;13.38;;;;;;;18.01;63.79;100741.05;128626;1092;22717;-76
2021/06/17 03:37:42;;;;;;;15.40;12.25;;;;;;;18.03;63.94;100744.34;128626;1092;24180;-77
2021/06/17 03:40:13;;;;;;;13.78;11.83;;;;;;;18.07;63.92;100740.22;128646;1094;24042;-77
2021/06/17 03:42:45;;;;;;;14.63;12.63;;;;;;;18.09;63.77;100746.16;128762;1092;22442;-76
2021/06/17 03:45:16;;;;;;;14.10;11.30;;;;;;;18.11;63.86;100741.45;128675;1092;22340;-77
2021/06/17 03:47:49;;;;;;;13.70;12.35;;;;;;;18.15;64.11;100745.34;128591;1095;22352;-78
2021/06/17 03:50:23;;;;;;;16.85;12.23;;;;;;;18.22;64.11;100748.00;128636;1095;25120;-78
2021/06/17 03:52:57;;;;;;;19.20;11.18;;;;;;;18.28;63.78;100741.83;128684;1092;22367;-77
2021/06/17 03:55:28;;;;;;;16.75;12.28;;;;;;;18.33;64.00;100734.83;128727;1092;22408;-77
2021/06/17 03:57:58;;;;;;;13.13;10.93;;;;;;;18.41;64.01;100733.77;128582;1092;22343;-76
2021/06/17 04:00:32;;;;;;;11.73;10.50;;;;;;;18.48;63.93;100744.45;128534;1095;22335;-77
2021/06/17 04:03:10;;;;;;;13.33;11.20;;;;;;;18.57;63.80;100749.38;128542;1092;22339;-77
2021/06/17 04:05:40;;;;;;;12.25;10.95;;;;;;;18.69;63.86;100746.84;128547;1095;22350;-77
2021/06/17 04:08:12;;;;;;;14.83;10.70;;;;;;;18.79;63.41;100749.95;128641;1094;22353;-77
2021/06/17 04:10:43;;;;;;;15.55;11.23;;;;;;;18.91;63.58;100746.60;128619;1095;22366;-78
2021/06/17 04:13:14;;;;;;;;;;;;;;;18.99;63.48;100740.98;128663;1092;22334;-77
2021/06/17 04:15:45;;;;;;;13.73;12.05;;;;;;;19.04;63.00;100738.50;128599;1092;21256;-77
2021/06/17 04:18:17;;;;;;;12.60;11.28;;;;;;;19.14;62.83;100738.86;128574;1095;22347;-77
2021/06/17 04:20:48;;;;;;;16.60;11.83;;;;;;;19.27;62.94;100729.93;128647;1092;24943;-77
2021/06/17 04:23:21;;;;;;;15.43;12.65;;;;;;;19.37;62.53;100737.50;128681;1092;22682;-78
2021/06/17 04:25:56;;;;;;;18.30;11.70;;;;;;;19.45;62.62;100738.04;128689;1092;22345;-78
2021/06/17 04:28:30;;;;;;;16.58;11.45;;;;;;;19.58;62.56;100744.35;128598;1092;24513;-76
2021/06/17 04:31:02;;;;;;;12.70;11.50;;;;;;;19.69;62.16;100736.47;128600;1092;22353;-77
2021/06/17 04:33:32;;;;;;;15.40;11.80;;;;;;;19.78;62.32;100737.00;128733;1092;22353;-77
2021/06/17 04:36:04;;;;;;;14.55;12.83;;;;;;;19.84;61.90;100735.31;128590;1092;22339;-78
2021/06/17 04:38:34;;;;;;;17.85;12.48;;;;;;;19.85;61.70;100739.63;128574;1092;22343;-77
2021/06/17 04:41:03;;;;;;;18.18;13.25;;;;;;;19.91;61.67;100738.75;128630;1092;22359;-77
2021/06/17 04:43:35;;;;;;;16.43;13.10;;;;;;;20.00;61.49;100732.08;128569;1092;22298;-77
2021/06/17 04:46:06;;;;;;;15.83;13.20;;;;;;;20.13;61.52;100737.31;128619;1092;22350;-78
2021/06/17 04:48:38;;;;;;;17.30;13.05;;;;;;;20.26;61.60;100736.37;128352;1092;24239;-77
2021/06/17 04:51:10;;;;;;;14.33;12.00;;;;;;;20.40;61.18;100737.05;128676;1092;24056;-78
2021/06/17 04:53:41;;;;;;;13.20;11.38;;;;;;;20.51;60.87;100740.88;128544;1092;22369;-78
2021/06/17 04:56:13;;;;;;;13.48;12.15;;;;;;;20.63;60.59;100737.22;128631;1092;22350;-77
2021/06/17 04:58:43;;;;;;;13.98;12.55;;;;;;;20.79;60.67;100741.17;128635;1092;22335;-78
2021/06/17 05:01:13;;;;;;;15.93;13.05;;;;;;;20.94;59.68;100738.08;128638;1092;22333;-77
2021/06/17 05:03:43;;;;;;;14.15;11.98;;;;;;;21.02;59.82;100740.43;128630;1092;22436;-79
2021/06/17 05:06:17;;;;;;;13.90;12.40;;;;;;;21.14;59.53;100738.63;128678;1092;22433;-78
2021/06/17 05:11:37;;;;;;;13.43;11.30;;;;;;;21.45;58.81;100736.75;128421;1092;22348;-79
2021/06/17 05:14:07;;;;;;;14.73;11.98;;;;;;;21.59;58.81;100742.73;128687;1092;22433;-77
2021/06/17 05:16:37;;;;;;;12.18;10.93;;;;;;;21.73;58.54;100746.88;128783;1092;22399;-81
2021/06/17 05:19:07;;;;;;;15.45;11.28;;;;;;;21.93;58.10;100743.04;128661;1092;22934;-78
2021/06/17 05:21:37;;;;;;;15.70;10.98;;;;;;;22.08;58.13;100744.19;128662;1092;22360;-77
2021/06/17 05:24:07;;;;;;;13.70;10.50;;;;;;;22.26;57.40;100745.17;128650;1092;22356;-78
2021/06/17 05:26:38;;;;;;;14.78;10.75;;;;;;;22.43;56.93;100751.46;128682;1092;22355;-79
2021/06/17 05:29:07;;;;;;;14.07;11.07;;;;;;;22.61;56.51;100747.79;128659;1092;22329;-78
2021/06/17 05:31:37;;;;;;;15.40;11.23;;;;;;;22.83;56.17;100752.55;128611;1092;22370;-77
2021/06/17 05:34:07;;;;;;;13.03;11.05;;;;;;;23.03;55.82;100752.16;128629;1092;24527;-77
2021/06/17 05:36:37;;;;;;;11.75;10.23;;;;;;;23.24;55.23;100756.86;128661;1092;22948;-77
2021/06/17 05:39:07;;;;;;;14.98;10.78;;;;;;;23.46;54.71;100751.59;128695;1092;22436;-77
2021/06/17 05:41:37;;;;;;;12.03;10.75;;;;;;;23.69;53.84;100746.09;128700;1092;22435;-77
2021/06/17 05:44:07;;;;;;;12.20;11.00;;;;;;;23.92;53.17;100747.77;128642;1089;22341;-77
2021/06/17 05:46:40;;;;;;;13.18;11.73;;;;;;;24.24;52.72;100754.45;128656;1092;22353;-77
2021/06/17 05:49:10;;;;;;;11.95;10.35;;;;;;;24.55;51.80;100747.60;128615;1092;22354;-80
2021/06/17 05:51:40;;;;;;;14.45;11.75;;;;;;;24.86;51.29;100756.91;128591;1092;22332;-76
2021/06/17 05:54:10;;;;;;;17.83;11.40;;;;;;;25.15;50.33;100754.80;128683;1092;22355;-78
2021/06/17 05:56:40;;;;;;;14.85;12.05;;;;;;;25.50;50.15;100753.53;128605;1092;22346;-78
2021/06/17 05:59:09;;;;;;;15.08;11.85;;;;;;;25.79;48.86;100754.86;128712;1092;22448;-78
2021/06/17 06:01:39;;;;;;;19.25;12.25;;;;;;;26.00;48.28;100757.73;128610;1092;24510;-76
2021/06/17 06:04:12;;;;;;;11.88;10.18;;;;;;;26.23;47.84;100759.23;128610;1092;22337;-77
2021/06/17 06:06:42;;;;;;;12.18;10.65;;;;;;;26.46;47.20;100760.72;128588;1092;22363;-77
2021/06/17 06:09:13;;;;;;;15.20;10.57;;;;;;;26.75;47.20;100753.80;128666;1090;22357;-79
2021/06/17 06:11:42;;;;;;;16.55;10.38;;;;;;;27.07;46.25;100758.25;128635;1092;23364;-77
2021/06/17 06:14:12;;;;;;;10.80;9.13;;;;;;;27.40;45.71;100748.83;128605;1092;22433;-78
2021/06/17 06:16:42;;;;;;;11.20;9.88;;;;;;;27.69;44.42;100748.28;128625;1092;22338;-77
2021/06/17 06:19:12;;;;;;;13.13;10.00;;;;;;;27.92;44.35;100746.94;128665;1092;24483;-78
2021/06/17 06:21:43;;;;;;;16.53;8.57;;;;;;;28.13;43.93;100751.26;128647;1092;22337;-78
2021/06/17 06:24:13;;;;;;;14.75;10.53;;;;;;;28.33;43.60;100747.67;128592;1092;22344;-77
2021/06/17 06:26:44;;;;;;;11.23;10.03;;;;;;;28.48;42.75;100749.54;128671;1092;22422;-78
2021/06/17 06:29:14;;;;;;;12.85;9.50;;;;;;;28.67;42.14;100751.66;128638;1092;22664;-77
2021/06/17 06:31:44;;;;;;;12.03;9.98;;;;;;;28.81;41.90;100755.38;128599;1092;22350;-77
2021/06/17 06:34:14;;;;;;;13.17;10.17;;;;;;;28.96;41.63;100755.31;128653;1092;24495;-78
2021/06/17 06:36:44;;;;;;;12.78;9.18;;;;;;;29.18;41.38;100751.39;128607;1092;23283;-78
2021/06/17 06:39:15;;;;;;;12.13;9.00;;;;;;;29.47;41.14;100754.98;128693;1092;22358;-77
2021/06/17 06:41:46;;;;;;;14.65;9.55;;;;;;;29.77;40.64;100759.39;128725;1092;22340;-78
2021/06/17 06:44:16;;;;;;;14.83;9.35;;;;;;;29.90;39.90;100762.55;128692;1092;24228;-78
2021/06/17 06:46:46;;;;;;;11.85;9.98;;;;;;;29.99;39.60;100749.91;128657;1092;22382;-77
2021/06/17 06:49:15;;;;;;;11.10;8.80;;;;;;;30.02;39.28;100760.23;128632;1092;22337;-77
2021/06/17 06:51:46;;;;;;;11.23;9.20;;;;;;;30.10;39.41;100769.71;128610;1092;22356;-77
2021/06/17 06:54:18;;;;;;;12.87;9.10;;;;;;;30.16;38.95;100761.20;128625;1092;24509;-77
2021/06/17 06:56:48;;;;;;;10.28;8.75;;;;;;;30.31;39.14;100765.68;128576;1092;23281;-78
2021/06/17 06:59:17;;;;;;;15.95;9.88;;;;;;;30.39;38.52;100773.23;128625;1092;22362;-79
2021/06/17 07:04:56;;;;;;;12.70;9.90;;;;;;;30.75;38.00;100775.51;128361;1098;24515;-81
2021/06/17 07:07:27;;;;;;;11.48;9.03;;;;;;;30.92;37.53;100784.06;127704;1101;22385;-79
2021/06/17 07:09:56;;;;;;;13.58;11.05;;;;;;;31.05;37.06;100793.41;128001;1101;22412;-79
2021/06/17 07:12:26;;;;;;;11.25;9.60;;;;;;;31.12;37.41;100798.50;127942;1100;22424;-79
2021/06/17 07:14:58;;;;;;;12.03;9.88;;;;;;;31.23;37.41;100789.08;127965;1101;22392;-79
2021/06/17 07:17:30;;;;;;;9.85;8.48;;;;;;;31.32;36.40;100794.66;127920;1100;22437;-78
2021/06/17 07:20:07;;;;;;;11.80;8.83;;;;;;;31.44;36.81;100805.17;127922;1100;22455;-78
2021/06/17 07:22:38;;;;;;;14.83;8.33;;;;;;;31.57;36.53;100796.23;127989;1098;22428;-79
2021/06/17 07:25:11;;;;;;;10.80;7.70;;;;;;;31.74;36.20;100812.06;128075;1095;22375;-78
2021/06/17 07:27:41;;;;;;;9.48;7.45;;;;;;;31.82;35.67;100811.37;128259;1095;22367;-78
2021/06/17 07:30:12;;;;;;;12.60;7.53;;;;;;;31.94;35.52;100802.74;128277;1095;22382;-79
2021/06/17 07:32:51;;;;;;;9.73;8.08;;;;;;;31.97;35.24;100813.08;128283;1093;22361;-78
2021/06/17 07:35:21;;;;;;;9.33;7.35;;;;;;;31.98;35.30;100814.69;128262;1095;22366;-79
2021/06/17 07:37:51;;;;;;;9.58;7.85;;;;;;;32.05;34.91;100810.45;128240;1095;22481;-78
2021/06/17 07:40:21;;;;;;;7.80;7.03;;;;;;;32.04;34.95;100808.02;128260;1095;22276;-80
2021/06/17 07:42:52;;;;;;;9.48;7.28;;;;;;;32.21;35.08;100818.38;128286;1095;22379;-79
2021/06/17 07:45:25;;;;;;;9.80;7.45;;;;;;;32.48;34.39;100812.14;128244;1095;25030;-79
2021/06/17 07:47:58;;;;;;;14.73;8.15;;;;;;;32.41;34.12;100817.18;128297;1095;22394;-79
2021/06/17 07:50:28;;;;;;;11.15;6.95;;;;;;;32.33;34.28;100816.77;128252;1095;22449;-79
2021/06/17 07:52:58;;;;;;;7.93;6.63;;;;;;;32.32;33.55;100815.16;128356;1095;22366;-78
2021/06/17 07:55:28;;;;;;;9.67;7.03;;;;;;;32.48;33.78;100817.62;128311;1095;22370;-80
2021/06/17 07:58:04;;;;;;;7.65;6.53;;;;;;;32.45;33.55;100818.22;128309;1095;22465;-80
2021/06/17 08:00:34;;;;;;;;;;;;;;;32.49;33.19;100820.06;128310;1098;22457;-79
2021/06/17 08:03:06;;;;;;;8.98;6.50;;;;;;;32.55;33.48;100818.82;128065;1098;23008;-78
2021/06/17 08:05:39;;;;;;;10.20;6.90;;;;;;;32.82;33.43;100828.13;128331;1098;22854;-78
2021/06/17 08:08:11;;;;;;;11.90;7.10;;;;;;;33.01;32.63;100823.38;128099;1098;22367;-79
2021/06/17 08:10:41;;;;;;;8.98;6.88;;;;;;;33.06;32.09;100827.95;128125;1098;24302;-79
2021/06/17 08:13:13;;;;;;;9.25;6.43;;;;;;;33.12;31.78;100814.94;128026;1098;22450;-78
2021/06/17 08:15:45;;;;;;;9.93;6.58;;;;;;;33.39;31.85;100824.98;127976;1099;22380;-80
2021/06/17 08:18:16;;;;;;;8.28;5.68;;;;;;;33.43;31.06;100831.48;128219;1098;24466;-79
2021/06/17 08:20:49;;;;;;;7.43;6.53;;;;;;;33.31;30.31;100821.06;128202;1098;24243;-78
2021/06/17 08:23:21;;;;;;;8.88;6.63;;;;;;;33.12;30.76;100818.47;128059;1098;22388;-79
2021/06/17 08:25:54;;;;;;;8.40;7.50;;;;;;;32.92;30.33;100816.16;128189;1098;22394;-80
2021/06/17 08:28:26;;;;;;;;;;;;;;;32.41;30.57;100811.72;128191;1100;22636;-78
2021/06/17 08:30:58;;;;;;;10.58;6.23;;;;;;;32.50;31.81;100809.93;128043;1098;21271;-80
2021/06/17 08:33:33;;;;;;;7.08;6.05;;;;;;;32.84;31.06;100819.63;128195;1098;22402;-78
2021/06/17 08:36:08;;;;;;;8.80;5.87;;;;;;;32.99;30.75;100825.63;128018;1101;22519;-79
2021/06/17 08:38:42;;;;;;;7.70;6.20;;;;;;;33.00;30.27;100818.22;127893;1104;22409;-79
2021/06/17 08:41:17;;;;;;;9.20;6.10;;;;;;;32.99;30.43;100819.31;127617;1101;22385;-78
2021/06/17 08:43:51;;;;;;;9.15;5.90;;;;;;;33.13;29.81;100825.59;127114;1105;22855;-79
2021/06/17 08:46:21;;;;;;;9.07;6.27;;;;;;;32.84;30.11;100817.70;127209;1101;22410;-79
2021/06/17 08:48:52;;;;;;;8.27;5.77;;;;;;;32.89;30.33;100823.08;127574;1102;22399;-79
2021/06/17 08:51:27;;;;;;;7.03;6.23;;;;;;;32.68;29.81;100819.13;127583;1101;25033;-79
2021/06/17 08:53:57;;;;;;;7.53;5.65;;;;;;;32.56;30.42;100825.13;127604;1101;22362;-79
2021/06/17 08:56:27;;;;;;;6.78;5.53;;;;;;;32.25;30.45;100825.66;127977;1101;22392;-78
2021/06/17 08:58:58;;;;;;;9.65;6.10;;;;;;;31.94;31.31;100819.94;127608;1101;24563;-79
2021/06/17 09:01:28;;;;;;;;;;;;;;;31.69;30.94;100828.52;127860;1098;22781;-79
2021/06/17 09:04:26;;;;;;;8.38;6.60;;;;;;;31.19;31.99;100820.80;128100;1098;21274;-79
2021/06/17 09:07:02;;;;;;;10.07;6.30;;;;;;;30.99;32.29;100818.33;127761;1101;22466;-79
2021/06/17 09:09:43;;;;;;;9.38;6.85;;;;;;;31.16;31.68;100818.66;127979;1101;22414;-78
2021/06/17 09:12:21;;;;;;;8.03;6.65;;;;;;;31.35;32.17;100827.67;127632;1101;22474;-78
2021/06/17 09:15:05;;;;;;;10.10;7.83;;;;;;;31.40;31.07;100813.95;127730;1101;23222;-79
2021/06/17 09:17:36;;;;;;;11.40;7.68;;;;;;;31.24;31.55;100811.72;128015;1098;22424;-78
2021/06/17 09:20:17;;;;;;;11.57;6.33;;;;;;;31.09;31.01;100810.00;128003;1098;22423;-78
2021/06/17 09:22:52;;;;;;;9.45;6.33;;;;;;;30.81;31.49;100801.65;128022;1098;25309;-79
2021/06/17 09:25:24;;;;;;;10.70;6.53;;;;;;;30.63;31.79;100807.86;128179;1098;22409;-80
2021/06/17 09:28:00;;;;;;;12.10;6.58;;;;;;;30.56;32.10;100799.22;128277;1095;22486;-78
2021/06/17 09:30:31;;;;;;;9.75;6.70;;;;;;;30.54;32.16;100810.40;128558;1098;22389;-79
2021/06/17 09:33:11;;;;;;;7.90;7.03;;;;;;;30.56;32.13;100807.40;128301;1095;22398;-78
2021/06/17 09:35:53;;;;;;;10.48;6.53;;;;;;;30.60;31.85;100816.62;128293;1098;22385;-78
2021/06/17 09:38:25;;;;;;;9.07;6.70;;;;;;;30.77;31.81;100814.25;128340;1095;22480;-78
2021/06/17 09:40:56;;;;;;;8.05;7.25;;;;;;;30.91;31.62;100806.16;128579;1096;22387;-80
2021/06/17 09:43:28;;;;;;;;;;;;;;;31.01;31.30;100818.86;128311;1095;22494;-79
2021/06/17 09:46:05;;;;;;;7.73;6.35;;;;;;;30.93;31.44;100821.14;128043;1098;22987;-79
2021/06/17 09:48:44;;;;;;;8.88;7.23;;;;;;;30.97;31.84;100820.55;128021;1098;24218;-79
2021/06/17 09:51:44;;;;;;;8.38;6.70;;;;;;;31.02;31.97;100807.63;128085;1098;22395;-78
2021/06/17 09:54:29;;;;;;;8.60;6.68;;;;;;;31.16;31.78;100805.82;127999;1098;22395;-78
2021/06/17 09:57:08;;;;;;;8.83;7.03;;;;;;;31.39;31.05;100797.89;127995;1098;24914;-79
2021/06/17 09:59:45;;;;;;;8.80;6.98;;;;;;;31.39;30.99;100798.69;128167;1101;22395;-79
2021/06/17 10:02:25;;;;;;;14.55;8.18;;;;;;;31.29;31.11;100796.09;128051;1101;22392;-78
2021/06/17 10:05:26;;;;;;;12.23;7.25;;;;;;;31.13;31.31;100797.41;128249;1098;22362;-78
2021/06/17 10:07:57;;;;;;;8.05;6.75;;;;;;;30.79;31.38;100803.88;128117;1098;22529;-78
2021/06/17 10:10:32;;;;;;;11.80;6.80;;;;;;;30.55;31.96;100794.84;128075;1098;23145;-78
2021/06/17 10:13:05;;;;;;;10.90;7.57;;;;;;;30.41;32.24;100801.00;128321;1098;23731;-79
2021/06/17 10:15:35;;;;;;;11.43;7.63;;;;;;;30.38;32.42;100798.84;128093;1098;22358;-78
2021/06/17 10:18:14;;;;;;;8.63;6.88;;;;;;;30.38;31.83;100812.48;128065;1098;22381;-79
2021/06/17 10:20:44;;;;;;;9.78;7.40;;;;;;;30.20;32.23;100786.79;128104;1098;22851;-79
2021/06/17 10:23:15;;;;;;;10.18;7.53;;;;;;;30.28;32.42;100790.78;128102;1098;22455;-79
2021/06/17 10:25:46;;;;;;;9.53;7.20;;;;;;;30.36;32.30;100784.72;128216;1095;24200;-78
2021/06/17 10:28:44;;;;;;;8.05;7.30;;;;;;;30.56;32.52;100785.59;128291;1095;22387;-79
2021/06/17 10:31:39;;;;;;;7.85;7.05;;;;;;;30.63;31.79;100786.05;128335;1095;22341;-79
2021/06/17 10:37:18;;;;;;;7.75;6.98;;;;;;;30.52;32.30;100785.33;128276;1098;25114;-80
2021/06/17 10:40:13;;;;;;;10.33;6.68;;;;;;;30.63;31.96;100786.05;128125;1098;22887;-79
2021/06/17 10:42:46;;;;;;;9.83;7.58;;;;;;;30.71;31.90;100779.93;128080;1101;24636;-78
2021/06/17 10:45:33;;;;;;;9.80;7.25;;;;;;;30.59;32.10;100774.08;127563;1101;22414;-77
2021/06/17 10:48:14;;;;;;;9.10;6.95;;;;;;;30.44;32.72;100778.61;127731;1101;22357;-78
2021/06/17 10:51:01;;;;;;;8.10;7.23;;;;;;;30.33;32.73;100779.84;127669;1105;22388;-79
2021/06/17 10:53:39;;;;;;;7.73;6.90;;;;;;;30.13;33.42;100760.97;127536;1104;24996;-77
2021/06/17 10:56:26;;;;;;;7.58;5.73;;;;;;;30.13;33.20;100769.14;127640;1104;23973;-79
2021/06/17 10:59:01;;;;;;;8.65;6.33;;;;;;;29.86;33.42;100766.95;127248;1105;22414;-78
2021/06/17 11:01:42;;;;;;;10.30;7.10;;;;;;;29.81;33.63;100764.27;127244;1103;22414;-80
2021/06/17 11:04:33;;;;;;;11.35;6.83;;;;;;;29.76;33.63;100767.86;127568;1103;22937;-80
2021/06/17 11:07:03;;;;;;;8.88;6.88;;;;;;;29.69;33.90;100761.91;127666;1104;22412;-78
2021/06/17 11:10:05;;;;;;;8.35;6.73;;;;;;;29.62;33.74;100761.42;127642;1101;22408;-79
2021/06/17 11:12:44;;;;;;;8.80;7.15;;;;;;;29.51;33.86;100758.75;127986;1099;22420;-78
2021/06/17 11:15:39;;;;;;;9.03;6.13;;;;;;;29.53;34.00;100770.19;128043;1101;22429;-79
2021/06/17 11:18:10;;;;;;;9.00;7.45;;;;;;;29.64;33.87;100754.60;127960;1100;24351;-79
2021/06/17 11:20:42;;;;;;;9.48;6.63;;;;;;;29.66;33.80;100757.06;127866;1098;22391;-77
2021/06/17 11:23:18;;;;;;;10.08;7.08;;;;;;;29.61;34.17;100748.92;128042;1098;22774;-79
2021/06/17 11:25:48;;;;;;;8.65;6.33;;;;;;;29.72;33.95;100761.34;128020;1098;22366;-79
2021/06/17 11:28:23;;;;;;;10.15;7.15;;;;;;;29.74;33.51;100754.52;128011;1098;22377;-78
2021/06/17 11:30:54;;;;;;;9.97;6.63;;;;;;;29.75;33.44;100761.58;128017;1098;22380;-78
2021/06/17 11:33:24;;;;;;;9.30;6.30;;;;;;;29.70;33.27;100753.47;128053;1098;23470;-79
2021/06/17 11:36:03;;;;;;;8.15;6.35;;;;;;;29.81;33.23;100751.45;128054;1098;22384;-79
2021/06/17 11:38:37;;;;;;;11.55;6.13;;;;;;;29.80;32.81;100746.31;128146;1098;22385;-78
2021/06/17 11:41:17;;;;;;;9.10;7.13;;;;;;;29.76;33.19;100743.35;128158;1096;22392;-80
2021/06/17 11:44:01;;;;;;;13.43;7.27;;;;;;;29.63;33.46;100744.02;128135;1098;24231;-79
2021/06/17 11:46:37;;;;;;;9.95;6.55;;;;;;;29.55;33.76;100740.75;128337;1098;22386;-79
2021/06/17 11:49:19;;;;;;;10.80;6.65;;;;;;;29.61;33.96;100730.67;128296;1098;22369;-81
2021/06/17 11:51:53;;;;;;;10.45;6.05;;;;;;;29.60;33.70;100726.33;128068;1098;22807;-78
2021/06/17 11:54:25;;;;;;;8.63;5.63;;;;;;;29.51;34.13;100719.84;128353;1098;22410;-79